Time;durP1;ratioP1;P1;durP2;ratioP2;P2;SDS_P1;SDS_P2;PMS_P1;PMS_P2;Temp;Humidity;BMP_temperature;BMP_pressure;BME280_temperature;BME280_humidity;BME280_pressure;Samples;Min_cycle;Max_cycle;Signal;HPM_P1;HPM_P2
2021/07/24 00:00:34;;;;;;;47.85;27.48;;;;;;;17.43;56.15;99322.41;5006122;28;20017;-76
2021/07/24 00:03:00;;;;;;;7.78;3.97;;;;;;;17.42;56.43;99323.31;5055175;28;20067;-76
2021/07/24 00:05:26;;;;;;;16.48;9.65;;;;;;;17.38;56.67;99315.66;5022453;28;20064;-76
2021/07/24 00:07:52;;;;;;;37.28;22.08;;;;;;;17.41;56.51;99324.25;5038491;28;20048;-76
2021/07/24 00:10:18;;;;;;;36.05;21.58;;;;;;;17.39;56.82;99320.84;5021462;28;20124;-76
2021/07/24 00:12:44;;;;;;;46.40;27.55;;;;;;;17.41;56.85;99320.78;5020704;28;20053;-76
2021/07/24 00:15:11;;;;;;;18.40;10.23;;;;;;;17.36;56.85;99309.59;5018121;28;20042;-76
2021/07/24 00:17:37;;;;;;;31.10;20.48;;;;;;;17.46;57.02;99332.78;4999573;28;20124;-75
2021/07/24 00:20:03;;;;;;;6.82;3.00;;;;;;;17.45;57.23;99341.59;5000687;28;20079;-76
2021/07/24 00:22:29;;;;;;;3.92;2.65;;;;;;;17.38;57.11;99323.53;5049554;28;20025;-76
2021/07/24 00:24:55;;;;;;;6.82;3.53;;;;;;;17.43;57.09;99338.19;5026336;28;20065;-77
2021/07/24 00:27:33;;;;;;;7.68;5.03;;;;;;;17.39;56.87;99330.50;4982152;28;20080;-76
2021/07/24 00:30:05;;;;;;;14.38;9.05;;;;;;;17.36;57.17;99336.75;4999353;28;20045;-76
2021/07/24 00:32:44;;;;;;;19.08;11.35;;;;;;;17.30;57.27;99326.53;4981430;28;20042;-76
2021/07/24 00:35:10;;;;;;;7.50;4.50;;;;;;;17.34;57.29;99337.75;5014318;28;20103;-76
2021/07/24 00:37:36;;;;;;;30.13;18.40;;;;;;;17.27;57.52;99335.38;5013570;28;20116;-77
2021/07/24 00:40:02;;;;;;;9.27;5.80;;;;;;;17.33;57.53;99341.28;5013954;28;20042;-76
2021/07/24 00:42:30;;;;;;;7.75;3.95;;;;;;;17.07;57.60;99306.47;5013222;28;20088;-75
2021/07/24 00:45:02;;;;;;;8.90;3.28;;;;;;;17.29;57.72;99346.69;4996457;28;20053;-76
2021/07/24 00:47:32;;;;;;;;;;;;;;;17.27;57.67;99345.06;5000315;28;20088;-75
2021/07/24 00:50:13;;;;;;;5.78;2.80;;;;;;;17.16;57.59;99335.00;4963929;28;19948;-75
2021/07/24 00:52:43;;;;;;;4.80;2.63;;;;;;;17.16;57.74;99356.03;4994910;28;20037;-76
2021/07/24 00:55:13;;;;;;;6.03;2.80;;;;;;;17.09;58.02;99355.44;4995042;28;20041;-76
2021/07/24 00:57:41;;;;;;;18.75;10.63;;;;;;;17.01;57.93;99349.66;5012667;28;20092;-76
2021/07/24 01:00:11;;;;;;;7.80;3.22;;;;;;;16.93;58.52;99352.59;4979165;28;20042;-76
2021/07/24 01:02:38;;;;;;;8.07;4.37;;;;;;;16.90;58.20;99359.72;5012867;28;20502;-76
2021/07/24 01:05:07;;;;;;;4.03;2.60;;;;;;;16.78;58.43;99346.19;4994740;28;20280;-75
2021/07/24 01:07:34;;;;;;;4.03;2.25;;;;;;;16.80;58.49;99357.50;5010897;28;20133;-77
2021/07/24 01:10:01;;;;;;;6.10;4.32;;;;;;;16.75;58.58;99361.25;4995445;28;20045;-75
2021/07/24 01:12:28;;;;;;;4.30;2.45;;;;;;;16.61;58.63;99340.78;4978225;28;20528;-78
2021/07/24 01:14:55;;;;;;;4.50;2.72;;;;;;;16.52;58.63;99340.25;4979019;28;20053;-77
2021/07/24 01:17:21;;;;;;;7.72;2.60;;;;;;;16.48;58.45;99353.56;4978475;28;20037;-77
2021/07/24 01:19:47;;;;;;;5.18;2.78;;;;;;;16.40;58.95;99348.63;4994824;28;20053;-76
2021/07/24 01:22:14;;;;;;;4.72;2.80;;;;;;;16.44;58.99;99368.56;4963148;28;20417;-76
2021/07/24 01:24:41;;;;;;;6.55;2.65;;;;;;;16.36;59.41;99373.28;4981168;28;20079;-76
2021/07/24 01:27:09;;;;;;;5.47;3.22;;;;;;;16.23;59.31;99371.13;4998086;28;20079;-76
2021/07/24 01:29:37;;;;;;;8.57;3.60;;;;;;;16.07;59.36;99355.16;5014367;28;20042;-76
2021/07/24 01:32:05;;;;;;;8.95;4.10;;;;;;;16.00;59.48;99374.66;5014321;28;20041;-76
2021/07/24 01:34:32;;;;;;;7.55;4.00;;;;;;;15.93;60.19;99376.66;4999350;28;20041;-77
2021/07/24 01:37:01;;;;;;;9.40;4.50;;;;;;;15.80;60.30;99373.59;5014884;28;20049;-77
2021/07/24 01:39:29;;;;;;;7.50;4.18;;;;;;;15.74;60.52;99379.06;4998332;28;20045;-76
2021/07/24 01:41:56;;;;;;;7.55;3.70;;;;;;;15.70;60.67;99387.97;5030543;28;20069;-77
2021/07/24 01:44:23;;;;;;;6.35;3.47;;;;;;;15.54;61.07;99376.31;4981924;28;20509;-75
2021/07/24 01:46:49;;;;;;;5.97;3.38;;;;;;;15.64;61.59;99391.66;5014415;28;20167;-74
2021/07/24 01:52:49;;;;;;;7.65;3.50;;;;;;;15.61;62.39;99388.31;4956923;29;20515;-76
2021/07/24 01:55:35;;;;;;;5.55;3.03;;;;;;;15.58;62.38;99391.03;4935468;29;20047;-76
2021/07/24 01:58:27;;;;;;;6.25;3.45;;;;;;;15.57;62.80;99392.78;4987203;28;20777;-76
2021/07/24 02:01:04;;;;;;;6.35;3.53;;;;;;;15.49;62.75;99381.75;5013952;28;20056;-76
2021/07/24 02:03:35;;;;;;;7.63;3.53;;;;;;;15.57;62.83;99403.28;5014035;28;20083;-76
2021/07/24 02:06:21;;;;;;;6.03;3.65;;;;;;;15.51;63.22;99395.66;5031316;28;20552;-77
2021/07/24 02:09:19;;;;;;;7.88;3.67;;;;;;;15.52;63.50;99400.84;5013423;28;20065;-77
2021/07/24 02:11:51;;;;;;;7.43;3.75;;;;;;;15.45;63.25;99394.09;5030745;28;20041;-76
2021/07/24 02:14:20;;;;;;;5.35;3.72;;;;;;;15.58;63.36;99420.72;5032134;28;20053;-76
2021/07/24 02:16:53;;;;;;;7.95;3.70;;;;;;;15.57;63.56;99408.53;5032340;28;20514;-75
2021/07/24 02:19:26;;;;;;;7.47;3.53;;;;;;;15.52;63.31;99400.84;5013943;28;20042;-77
2021/07/24 02:21:53;;;;;;;6.95;3.67;;;;;;;15.69;63.72;99422.13;5013972;28;20037;-78
2021/07/24 02:24:19;;;;;;;5.68;3.67;;;;;;;15.69;63.49;99409.00;5017750;28;20132;-77
2021/07/24 02:26:45;;;;;;;6.22;3.40;;;;;;;15.84;63.42;99411.06;5037802;28;20041;-76
2021/07/24 02:29:12;;;;;;;7.63;3.58;;;;;;;15.92;63.38;99422.19;5008798;28;20030;-76
2021/07/24 02:31:39;;;;;;;6.78;3.60;;;;;;;15.98;63.25;99412.38;5030564;28;20045;-76
2021/07/24 02:34:09;;;;;;;7.85;3.42;;;;;;;15.93;62.93;99397.66;4997901;28;20045;-75
2021/07/24 02:36:35;;;;;;;6.18;3.33;;;;;;;16.07;62.73;99407.63;5013353;28;20612;-77
2021/07/24 02:39:02;;;;;;;8.82;3.33;;;;;;;16.23;62.90;99431.50;5029706;28;20042;-77
2021/07/24 02:41:28;;;;;;;8.40;3.65;;;;;;;16.31;62.75;99436.47;5013672;28;20124;-78
2021/07/24 02:43:56;;;;;;;6.95;3.83;;;;;;;16.25;62.56;99411.31;5030711;28;20073;-77
2021/07/24 02:46:22;;;;;;;10.02;4.15;;;;;;;16.41;62.30;99437.81;5013649;28;20118;-76
2021/07/24 02:48:51;;;;;;;6.03;3.50;;;;;;;16.30;62.25;99391.91;5031375;28;20075;-78
2021/07/24 02:51:24;;;;;;;6.97;3.30;;;;;;;16.61;62.26;99435.34;5014472;28;20045;-74
2021/07/24 02:53:52;;;;;;;6.53;3.30;;;;;;;16.67;62.21;99437.69;5013469;28;20524;-78
2021/07/24 02:56:18;;;;;;;5.28;3.60;;;;;;;16.60;62.11;99417.88;5013563;28;20045;-77
2021/07/24 02:58:44;;;;;;;6.15;3.50;;;;;;;16.80;61.92;99449.44;4988518;28;20103;-76
2021/07/24 03:01:10;;;;;;;6.75;4.20;;;;;;;16.76;61.74;99431.25;5030338;28;20053;-76
2021/07/24 03:03:37;;;;;;;5.32;3.40;;;;;;;16.83;61.74;99423.06;5030846;28;20037;-76
2021/07/24 03:06:03;;;;;;;5.47;3.33;;;;;;;16.96;61.75;99439.22;5032163;28;20132;-77
2021/07/24 03:08:29;;;;;;;4.78;3.20;;;;;;;16.94;61.67;99435.75;5032418;28;20037;-76
2021/07/24 03:10:55;;;;;;;4.25;3.20;;;;;;;17.04;61.62;99436.25;5016291;28;20041;-78
2021/07/24 03:13:21;;;;;;;12.07;3.70;;;;;;;17.10;61.54;99435.97;5035827;28;20508;-78
2021/07/24 03:15:47;;;;;;;13.40;3.53;;;;;;;17.10;61.28;99422.84;5035597;28;20041;-77
2021/07/24 03:18:13;;;;;;;7.25;3.92;;;;;;;17.15;61.42;99420.88;5035822;28;20045;-76
2021/07/24 03:20:39;;;;;;;11.23;3.50;;;;;;;17.27;61.42;99431.81;5016765;28;20509;-77
2021/07/24 03:23:05;;;;;;;7.10;3.58;;;;;;;17.38;61.21;99432.19;5016808;28;20195;-77
2021/07/24 03:25:31;;;;;;;5.70;3.58;;;;;;;17.54;61.26;99449.97;5016215;28;20057;-75
2021/07/24 03:27:57;;;;;;;7.70;3.60;;;;;;;17.65;61.26;99457.38;5033736;28;20041;-76
2021/07/24 03:30:23;;;;;;;66.63;36.90;;;;;;;17.72;61.22;99453.56;4999970;28;20040;-77
2021/07/24 03:32:49;;;;;;;22.52;13.10;;;;;;;17.79;61.40;99444.47;5016403;28;20041;-76
2021/07/24 03:35:14;;;;;;;22.42;10.90;;;;;;;17.99;61.10;99456.75;5034400;28;20084;-76
2021/07/24 03:37:40;;;;;;;5.53;2.83;;;;;;;18.12;60.78;99448.31;5034243;28;20120;-76
2021/07/24 03:40:07;;;;;;;3.78;2.58;;;;;;;18.25;59.84;99445.97;5034634;28;20041;-77
2021/07/24 03:42:33;;;;;;;19.67;11.00;;;;;;;18.32;59.29;99453.50;5016061;28;20083;-77
2021/07/24 03:44:59;;;;;;;8.93;3.88;;;;;;;18.47;58.81;99456.34;5015937;28;20033;-76
2021/07/24 03:47:24;;;;;;;4.95;2.45;;;;;;;18.52;57.95;99454.34;4999831;28;20512;-78
2021/07/24 03:49:50;;;;;;;3.45;2.00;;;;;;;18.62;57.52;99463.53;5016497;28;20040;-75
2021/07/24 03:52:16;;;;;;;6.25;2.33;;;;;;;18.60;57.04;99446.09;5033132;28;20041;-77
2021/07/24 03:54:42;;;;;;;3.00;2.20;;;;;;;18.74;56.66;99462.09;5033935;28;20129;-76
2021/07/24 03:57:08;;;;;;;3.88;2.20;;;;;;;18.89;56.28;99467.56;5033674;28;20452;-77
2021/07/24 03:59:34;;;;;;;3.53;1.95;;;;;;;19.05;55.94;99475.59;5033569;28;20569;-76
2021/07/24 04:02:00;;;;;;;3.38;2.15;;;;;;;19.12;55.28;99482.25;5033759;28;20053;-75
2021/07/24 04:04:26;;;;;;;3.30;1.92;;;;;;;19.17;55.01;99482.88;5039937;28;20037;-78
2021/07/24 04:06:55;;;;;;;4.43;1.98;;;;;;;19.13;54.56;99467.31;5016063;28;20037;-79
2021/07/24 04:09:21;;;;;;;15.48;7.95;;;;;;;19.32;54.19;99477.78;5015627;28;20034;-77
2021/07/24 04:11:48;;;;;;;4.50;2.80;;;;;;;19.39;54.11;99480.06;5015215;28;20046;-76
2021/07/24 04:14:14;;;;;;;28.55;12.02;;;;;;;19.60;53.91;99494.84;5032962;28;20037;-77
2021/07/24 04:16:40;;;;;;;6.13;3.10;;;;;;;19.70;53.63;99490.81;5033012;28;20164;-77
2021/07/24 04:19:06;;;;;;;18.40;8.00;;;;;;;19.89;53.00;99495.16;5015239;28;20056;-78
2021/07/24 04:21:32;;;;;;;13.80;5.53;;;;;;;20.08;52.69;99509.09;5031248;28;20075;-78
2021/07/24 04:23:59;;;;;;;37.58;16.63;;;;;;;20.24;52.40;99510.91;5014901;28;20057;-77
2021/07/24 04:26:25;;;;;;;18.88;8.52;;;;;;;20.31;52.09;99501.72;5014348;28;20137;-76
2021/07/24 04:28:52;;;;;;;4.55;2.00;;;;;;;20.42;52.02;99507.25;5013459;28;20052;-77
2021/07/24 04:31:18;;;;;;;5.88;1.98;;;;;;;20.41;51.54;99510.84;5013115;28;20046;-76
2021/07/24 04:33:44;;;;;;;16.55;7.82;;;;;;;20.59;51.19;99526.66;5029524;28;20042;-77
2021/07/24 04:36:12;;;;;;;4.07;1.98;;;;;;;20.71;50.76;99515.38;4999661;28;20045;-77
2021/07/24 04:38:38;;;;;;;5.63;2.42;;;;;;;20.77;50.21;99501.88;5015435;28;20100;-76
2021/07/24 04:41:04;;;;;;;4.88;2.42;;;;;;;20.98;49.53;99520.09;5015198;28;20045;-76
2021/07/24 04:43:30;;;;;;;1.58;1.42;;;;;;;21.11;49.08;99524.69;5013184;28;20044;-76
2021/07/24 04:45:56;;;;;;;12.40;6.00;;;;;;;21.28;48.81;99521.94;4995508;28;20417;-76
2021/07/24 04:48:22;;;;;;;6.32;1.52;;;;;;;21.44;48.39;99515.75;4979008;28;20117;-76
2021/07/24 04:50:54;;;;;;;10.50;1.80;;;;;;;21.55;47.01;99529.19;5011654;28;20045;-76
2021/07/24 04:53:20;;;;;;;8.23;1.70;;;;;;;21.53;47.00;99515.19;5012666;28;20588;-75
2021/07/24 04:55:48;;;;;;;9.68;2.22;;;;;;;21.56;46.25;99530.06;4995465;28;20132;-77
2021/07/24 04:58:14;;;;;;;10.25;2.38;;;;;;;21.55;46.38;99515.94;4995586;28;20046;-76
2021/07/24 05:00:45;;;;;;;4.80;2.05;;;;;;;21.67;46.03;99522.34;4995576;28;20037;-77
2021/07/24 05:03:12;;;;;;;7.63;2.28;;;;;;;21.76;46.09;99524.47;5014415;28;20041;-77
2021/07/24 05:05:42;;;;;;;12.98;6.28;;;;;;;21.97;45.91;99535.53;4964335;28;20053;-77
2021/07/24 05:08:08;;;;;;;13.25;6.07;;;;;;;22.12;45.82;99527.63;5014699;28;20067;-78
2021/07/24 05:10:35;;;;;;;14.10;6.43;;;;;;;22.16;45.60;99515.91;4983128;28;20115;-77
2021/07/24 05:13:02;;;;;;;3.65;1.92;;;;;;;22.41;45.09;99530.25;4978230;28;20059;-77
2021/07/24 05:15:28;;;;;;;13.10;7.13;;;;;;;22.60;44.72;99531.78;4995455;28;20408;-76
2021/07/24 05:17:54;;;;;;;4.43;2.08;;;;;;;22.76;43.83;99539.59;4995890;28;20049;-77
2021/07/24 05:20:20;;;;;;;5.57;2.20;;;;;;;22.80;43.68;99536.66;5012423;28;20070;-76
2021/07/24 05:22:53;;;;;;;3.42;1.10;;;;;;;22.62;43.33;99537.84;5012459;28;20052;-76
2021/07/24 05:25:19;;;;;;;3.50;1.48;;;;;;;22.72;42.52;99538.94;5003637;28;20057;-77
2021/07/24 05:27:47;;;;;;;1.70;1.30;;;;;;;22.69;42.17;99531.19;5014278;28;20527;-78
2021/07/24 05:30:14;;;;;;;15.90;8.43;;;;;;;22.68;41.63;99535.66;5032216;28;20413;-77
2021/07/24 05:32:41;;;;;;;2.05;1.20;;;;;;;22.79;41.61;99550.88;4998952;28;20045;-76
2021/07/24 05:35:08;;;;;;;3.28;1.23;;;;;;;22.97;41.53;99558.59;4982719;28;20037;-77
2021/07/24 05:37:37;;;;;;;3.75;1.20;;;;;;;23.27;40.47;99549.63;5014813;28;20528;-77
2021/07/24 05:40:04;;;;;;;3.55;1.10;;;;;;;23.46;39.45;99552.75;5017182;28;20037;-77
2021/07/24 05:42:30;;;;;;;1.85;1.10;;;;;;;23.53;39.54;99555.84;5015067;28;20056;-75
2021/07/24 05:45:01;;;;;;;2.10;1.30;;;;;;;23.98;39.09;99546.69;4998035;28;20041;-76
2021/07/24 05:47:34;;;;;;;2.03;1.10;;;;;;;24.79;38.21;99550.75;4997795;28;20068;-76
2021/07/24 05:50:01;;;;;;;2.55;1.25;;;;;;;25.55;36.85;99550.56;4998981;28;20041;-77
2021/07/24 05:52:27;;;;;;;3.03;1.30;;;;;;;26.36;35.41;99536.44;4997809;28;20060;-75
2021/07/24 05:54:53;;;;;;;5.60;3.95;;;;;;;26.91;34.84;99541.84;5014045;28;20184;-77
2021/07/24 05:57:20;;;;;;;2.22;1.60;;;;;;;27.44;33.96;99523.31;4997803;28;20041;-77
2021/07/24 05:59:46;;;;;;;3.28;1.48;;;;;;;28.05;32.91;99538.59;5035114;28;20057;-77
2021/07/24 06:02:13;;;;;;;2.15;1.35;;;;;;;28.66;31.40;99544.09;4997484;28;20084;-77
2021/07/24 06:04:39;;;;;;;3.17;2.20;;;;;;;28.89;30.76;99517.97;5031371;28;20484;-77
2021/07/24 06:07:06;;;;;;;3.05;1.40;;;;;;;29.36;30.60;99527.16;5012923;28;20402;-78
2021/07/24 06:09:32;;;;;;;4.18;1.40;;;;;;;29.89;29.69;99517.78;5031159;28;20091;-77
2021/07/24 06:11:58;;;;;;;2.72;1.30;;;;;;;30.20;29.04;99521.09;5014161;28;20095;-77
2021/07/24 06:14:25;;;;;;;2.83;1.52;;;;;;;30.67;28.43;99508.59;5021036;28;20115;-76
2021/07/24 06:16:51;;;;;;;2.58;1.65;;;;;;;31.15;27.77;99527.22;5016242;28;20045;-78
2021/07/24 06:19:17;;;;;;;8.15;4.00;;;;;;;31.42;26.70;99526.28;5014007;28;20052;-77
2021/07/24 06:21:44;;;;;;;9.73;4.68;;;;;;;31.50;26.82;99515.59;4997619;28;20127;-76
2021/07/24 06:24:10;;;;;;;8.85;4.22;;;;;;;31.30;26.24;99535.56;5013455;28;20033;-77
2021/07/24 06:26:39;;;;;;;7.55;2.15;;;;;;;31.09;26.19;99536.69;4998019;28;20053;-77
2021/07/24 06:29:06;;;;;;;4.10;1.45;;;;;;;31.15;26.53;99528.06;5014607;28;20544;-75
2021/07/24 06:31:32;;;;;;;5.63;3.55;;;;;;;31.33;26.37;99538.81;4998273;28;20038;-78
2021/07/24 06:34:01;;;;;;;13.32;5.50;;;;;;;31.59;25.67;99542.53;5000585;28;20068;-76
2021/07/24 06:36:34;;;;;;;7.67;3.20;;;;;;;32.57;25.72;99542.31;5036060;28;20061;-77
2021/07/24 06:39:00;;;;;;;2.75;1.10;;;;;;;34.19;23.84;99543.75;5024462;28;20292;-76
2021/07/24 06:41:31;;;;;;;1.65;1.15;;;;;;;35.89;21.55;99529.47;5032686;28;20037;-76
2021/07/24 06:43:57;;;;;;;1.90;1.00;;;;;;;37.58;18.63;99536.88;5036016;28;20063;-80
2021/07/24 06:46:23;;;;;;;10.23;5.45;;;;;;;38.48;17.68;99533.50;5052740;28;20193;-77
2021/07/24 06:48:49;;;;;;;1.30;0.93;;;;;;;39.74;16.66;99542.88;5021230;28;20061;-78
2021/07/24 06:51:14;;;;;;;2.25;1.10;;;;;;;40.59;15.72;99537.63;5056126;28;20021;-77
2021/07/24 06:53:40;;;;;;;2.45;1.30;;;;;;;41.61;14.54;99520.38;5056351;28;20366;-76
2021/07/24 06:56:06;;;;;;;5.28;2.92;;;;;;;42.24;13.59;99529.41;5056494;28;20048;-77
2021/07/24 06:58:33;;;;;;;3.40;1.30;;;;;;;43.13;13.69;99535.38;5022997;28;20028;-79
2021/07/24 07:00:59;;;;;;;1.42;1.15;;;;;;;43.99;12.90;99545.91;5055593;28;20067;-77
2021/07/24 07:03:25;;;;;;;1.05;1.02;;;;;;;44.33;12.33;99537.03;5016822;28;20037;-77
2021/07/24 07:05:52;;;;;;;2.83;1.38;;;;;;;44.31;11.70;99541.94;5046265;28;20061;-77
2021/07/24 07:08:21;;;;;;;3.17;1.50;;;;;;;42.78;12.47;99545.13;5020785;28;20203;-78
2021/07/24 07:10:48;;;;;;;6.75;4.50;;;;;;;42.19;12.86;99540.19;5037994;28;20474;-77
2021/07/24 07:13:20;;;;;;;2.70;1.20;;;;;;;43.09;12.68;99545.97;5042917;28;20119;-78
2021/07/24 07:15:55;;;;;;;31.42;14.18;;;;;;;43.64;11.69;99549.50;5021132;28;20048;-78
2021/07/24 07:18:21;;;;;;;4.10;2.00;;;;;;;44.40;11.43;99548.69;5003525;28;20076;-78
2021/07/24 07:20:49;;;;;;;1.67;1.10;;;;;;;44.95;11.12;99547.28;5026447;28;20084;-79
2021/07/24 07:23:15;;;;;;;5.28;2.53;;;;;;;45.76;10.15;99552.72;5037456;28;20041;-76
2021/07/24 07:26:11;;;;;;;6.40;3.47;;;;;;;46.56;9.46;99549.66;5018660;28;20061;-79
2021/07/24 07:28:46;;;;;;;2.85;2.08;;;;;;;47.20;9.49;99553.59;5019636;28;20033;-79
2021/07/24 07:31:12;;;;;;;3.63;2.40;;;;;;;47.92;8.87;99559.59;5035517;28;20103;-77
2021/07/24 07:33:38;;;;;;;3.97;1.52;;;;;;;48.26;8.39;99550.13;5018805;28;20037;-77
2021/07/24 07:36:04;;;;;;;1.85;1.20;;;;;;;48.29;8.24;99549.59;5035771;28;20038;-77
2021/07/24 07:38:30;;;;;;;1.17;1.08;;;;;;;48.11;8.40;99540.69;5016152;28;20132;-76
2021/07/24 07:40:56;;;;;;;3.08;1.50;;;;;;;48.56;7.75;99545.81;5016793;28;20080;-77
2021/07/24 07:43:22;;;;;;;2.42;1.35;;;;;;;48.88;7.63;99552.25;5016725;28;20458;-78
2021/07/24 07:45:47;;;;;;;4.40;1.38;;;;;;;47.59;8.03;99550.59;5016757;28;20048;-78
2021/07/24 07:48:13;;;;;;;3.22;1.60;;;;;;;46.11;8.29;99546.09;5016176;28;20073;-80
2021/07/24 07:50:41;;;;;;;2.38;1.10;;;;;;;46.45;8.58;99538.56;5000139;28;20509;-76
2021/07/24 07:53:07;;;;;;;4.88;1.45;;;;;;;46.30;8.61;99560.31;5014664;28;20571;-76
2021/07/24 07:55:33;;;;;;;14.25;1.70;;;;;;;45.65;9.07;99555.34;5016673;28;20502;-79
2021/07/24 07:57:59;;;;;;;17.38;2.63;;;;;;;45.21;9.04;99557.91;5031813;28;20050;-77
2021/07/24 08:00:25;;;;;;;1.63;1.40;;;;;;;45.75;8.77;99560.16;5014228;28;20052;-77
2021/07/24 08:02:52;;;;;;;6.43;1.40;;;;;;;46.34;8.40;99557.91;5016317;28;20049;-79
2021/07/24 08:05:18;;;;;;;4.78;1.88;;;;;;;46.10;9.06;99564.47;5000165;28;20038;-79
2021/07/24 08:07:44;;;;;;;16.73;7.15;;;;;;;46.12;8.50;99548.56;5016268;28;20048;-79
2021/07/24 08:10:10;;;;;;;5.97;2.55;;;;;;;46.55;8.90;99557.09;5016068;28;20041;-76
2021/07/24 08:12:36;;;;;;;5.03;1.90;;;;;;;45.25;8.85;99562.66;5016296;28;20056;-77
2021/07/24 08:15:02;;;;;;;5.68;1.70;;;;;;;43.51;9.45;99563.41;5016158;28;20037;-76
2021/07/24 08:17:29;;;;;;;2.60;1.50;;;;;;;41.88;10.36;99558.34;5002177;28;20110;-77
2021/07/24 08:19:56;;;;;;;2.78;1.50;;;;;;;42.27;10.43;99572.66;5016670;28;20065;-76
2021/07/24 08:22:21;;;;;;;3.10;1.42;;;;;;;41.73;11.21;99561.44;5035666;28;20048;-77
2021/07/24 08:24:47;;;;;;;5.32;1.65;;;;;;;43.47;10.40;99579.47;5020956;28;20050;-77
2021/07/24 08:27:13;;;;;;;4.55;1.70;;;;;;;45.41;9.49;99568.38;5040731;28;20176;-78
2021/07/24 08:29:39;;;;;;;4.47;1.70;;;;;;;45.76;8.86;99567.31;5015037;28;20033;-77
2021/07/24 08:32:08;;;;;;;8.60;3.20;;;;;;;44.95;9.32;99571.16;5033045;28;20079;-78
2021/07/24 08:34:34;;;;;;;;;;;;;;;45.31;9.62;99582.78;4999387;28;20041;-78
2021/07/24 08:37:01;;;;;;;4.72;1.80;;;;;;;45.39;8.84;99587.03;5033215;28;19917;-79
2021/07/24 08:39:27;;;;;;;2.65;1.30;;;;;;;43.42;10.09;99585.66;5018159;28;20048;-77
2021/07/24 08:41:53;;;;;;;30.20;7.40;;;;;;;43.77;10.25;99576.66;5021209;28;20041;-80
2021/07/24 08:44:19;;;;;;;8.23;3.38;;;;;;;44.86;9.62;99584.47;5019644;28;20124;-78
2021/07/24 08:46:45;;;;;;;2.38;1.05;;;;;;;46.35;8.89;99576.06;5017348;28;20050;-79
2021/07/24 08:49:11;;;;;;;2.50;2.13;;;;;;;47.32;8.49;99584.53;5015781;28;20040;-77
2021/07/24 08:51:37;;;;;;;5.88;3.83;;;;;;;47.74;8.22;99571.09;5015053;28;20041;-79
2021/07/24 08:54:06;;;;;;;3.85;1.73;;;;;;;47.66;7.72;99578.75;5014926;28;20046;-78
2021/07/24 08:56:41;;;;;;;5.00;2.45;;;;;;;45.60;8.88;99576.34;5033212;28;20041;-77
2021/07/24 08:59:10;;;;;;;5.97;2.33;;;;;;;45.26;8.99;99588.19;5014952;28;20045;-77
2021/07/24 09:01:39;;;;;;;5.20;1.70;;;;;;;44.83;9.12;99579.44;5032702;28;20060;-78
2021/07/24 09:04:06;;;;;;;4.40;1.60;;;;;;;43.89;9.65;99589.50;4998730;28;20083;-77
2021/07/24 09:06:32;;;;;;;2.97;1.73;;;;;;;42.66;10.16;99594.28;5032341;28;20571;-79
2021/07/24 09:08:59;;;;;;;4.15;1.90;;;;;;;43.87;9.88;99578.81;5032411;28;20091;-78
2021/07/24 09:11:25;;;;;;;5.20;1.60;;;;;;;44.22;9.62;99585.34;4982168;28;20486;-79
2021/07/24 09:13:51;;;;;;;3.97;1.38;;;;;;;44.35;9.53;99585.06;4998118;28;20041;-77
2021/07/24 09:16:17;;;;;;;2.28;1.30;;;;;;;42.46;10.19;99567.22;4998326;28;20408;-77
2021/07/24 09:18:44;;;;;;;4.75;1.10;;;;;;;40.42;11.14;99589.06;5014896;28;20045;-79
2021/07/24 09:21:10;;;;;;;3.45;1.55;;;;;;;38.84;12.02;99597.59;5014135;28;20052;-78
2021/07/24 09:23:39;;;;;;;6.47;5.03;;;;;;;37.51;13.36;99600.06;5013897;28;20508;-78
2021/07/24 09:26:06;;;;;;;23.70;20.77;;;;;;;36.49;13.96;99596.38;5017564;28;20140;-79
2021/07/24 09:28:33;;;;;;;16.85;13.35;;;;;;;35.90;14.61;99611.50;4978540;28;20088;-78
2021/07/24 09:31:21;;;;;;;23.15;8.00;;;;;;;35.02;15.03;99598.28;4979241;28;20517;-79
2021/07/24 09:33:51;;;;;;;4.35;3.33;;;;;;;34.34;15.72;99606.81;5027545;28;20065;-79
2021/07/24 09:36:31;;;;;;;10.18;7.18;;;;;;;34.09;16.27;99614.94;4994704;28;20501;-77
2021/07/24 09:39:07;;;;;;;6.57;3.40;;;;;;;35.83;15.63;99588.91;4995125;28;20417;-79
2021/07/24 09:41:33;;;;;;;5.55;3.60;;;;;;;38.34;14.56;99605.91;4978451;28;20056;-78
2021/07/24 09:44:00;;;;;;;1.98;1.65;;;;;;;40.40;12.94;99593.88;5010932;28;20034;-78
2021/07/24 09:46:27;;;;;;;1.70;1.50;;;;;;;41.69;12.00;99596.53;5012192;28;20045;-79
2021/07/24 09:48:54;;;;;;;2.25;1.30;;;;;;;42.10;11.30;99588.84;4994801;28;20041;-80
2021/07/24 09:51:38;;;;;;;4.32;1.38;;;;;;;42.92;10.59;99595.00;4994698;28;20102;-77
2021/07/24 09:54:04;;;;;;;5.20;1.42;;;;;;;42.98;10.42;99593.25;4994298;28;20517;-77
2021/07/24 09:56:43;;;;;;;2.92;1.52;;;;;;;42.03;10.73;99598.16;4994160;28;20041;-79
2021/07/24 09:59:32;;;;;;;2.78;1.48;;;;;;;41.18;10.66;99603.84;4993696;28;20046;-79
2021/07/24 10:02:00;;;;;;;4.13;2.05;;;;;;;39.45;11.75;99593.13;4984235;28;20091;-79
2021/07/24 10:04:38;;;;;;;6.30;2.30;;;;;;;38.73;12.40;99597.09;5011986;28;21120;-79
2021/07/24 10:07:08;;;;;;;2.47;1.20;;;;;;;40.01;12.11;99589.16;4994291;28;20548;-78
2021/07/24 10:09:35;;;;;;;9.90;6.07;;;;;;;41.76;11.22;99593.75;5011929;28;20042;-79
2021/07/24 10:12:08;;;;;;;2.35;1.52;;;;;;;42.48;10.64;99580.66;4995853;28;20528;-79
2021/07/24 10:14:38;;;;;;;4.57;1.27;;;;;;;42.10;10.12;99571.59;4995893;28;20077;-79
2021/07/24 10:17:03;;;;;;;2.83;1.45;;;;;;;40.61;10.81;99598.22;5013194;28;20037;-81
2021/07/24 10:19:29;;;;;;;2.13;1.10;;;;;;;38.79;11.85;99592.75;5011451;28;20041;-78
2021/07/24 10:21:57;;;;;;;1.63;1.38;;;;;;;38.46;11.91;99592.63;5015930;28;20473;-77
2021/07/24 10:24:24;;;;;;;5.65;2.92;;;;;;;39.56;11.46;99608.84;4967266;28;20087;-78
2021/07/24 10:27:03;;;;;;;4.60;1.60;;;;;;;40.20;11.45;99606.53;5035435;28;20456;-79
2021/07/24 10:29:45;;;;;;;2.42;1.25;;;;;;;40.90;11.04;99599.56;5036659;28;20413;-78
2021/07/24 10:32:16;;;;;;;1.92;1.08;;;;;;;40.23;11.15;99590.81;5020132;28;20505;-80
2021/07/24 10:34:50;;;;;;;4.10;1.23;;;;;;;38.65;11.86;99610.03;5037031;28;20041;-78
2021/07/24 10:37:42;;;;;;;3.90;1.38;;;;;;;37.00;13.10;99616.38;5020732;28;20059;-77
2021/07/24 10:40:18;;;;;;;4.35;1.40;;;;;;;35.71;14.01;99612.88;5023856;28;20056;-79
2021/07/24 10:42:47;;;;;;;2.47;1.00;;;;;;;35.05;14.35;99618.72;5038253;28;20497;-78
2021/07/24 10:45:45;;;;;;;1.88;1.27;;;;;;;34.32;15.40;99616.94;5039596;28;20056;-78
2021/07/24 10:48:14;;;;;;;1.73;1.13;;;;;;;33.89;15.36;99621.69;5016414;28;20041;-78
2021/07/24 10:51:00;;;;;;;1.63;1.10;;;;;;;33.35;15.89;99626.53;5038161;28;20570;-79
2021/07/24 10:53:45;;;;;;;1.27;0.98;;;;;;;32.70;16.50;99630.69;5019987;28;20113;-78
2021/07/24 10:56:42;;;;;;;1.73;1.20;;;;;;;31.67;17.30;99629.47;5038304;28;20037;-78
2021/07/24 10:59:14;;;;;;;3.53;1.50;;;;;;;30.76;18.34;99646.47;5019922;28;20492;-78
2021/07/24 11:01:48;;;;;;;4.60;1.30;;;;;;;30.05;18.83;99640.56;5019098;28;20049;-79
2021/07/24 11:04:38;;;;;;;3.65;1.10;;;;;;;29.45;20.45;99663.84;5018649;28;20057;-76
2021/07/24 11:07:13;;;;;;;2.90;1.42;;;;;;;28.88;20.99;99668.88;5018909;28;20457;-77
2021/07/24 11:09:40;;;;;;;2.28;1.05;;;;;;;28.38;21.70;99672.25;5035375;28;20507;-78
2021/07/24 11:12:16;;;;;;;2.47;1.20;;;;;;;27.94;22.53;99659.84;5019106;28;20041;-78
2021/07/24 11:14:49;;;;;;;1.42;1.27;;;;;;;27.59;22.56;99679.66;5007757;28;20078;-78
2021/07/24 11:17:17;;;;;;;2.13;1.40;;;;;;;27.39;22.65;99683.09;5006895;28;20052;-78
2021/07/24 11:19:50;;;;;;;4.50;1.55;;;;;;;27.21;22.61;99689.78;4990922;28;20045;-78
2021/07/24 11:22:20;;;;;;;1.98;1.30;;;;;;;26.95;22.95;99675.88;5022420;28;20042;-78
2021/07/24 11:24:49;;;;;;;1.48;1.10;;;;;;;26.84;22.88;99694.53;5019799;28;20084;-78
2021/07/24 11:27:35;;;;;;;4.07;1.63;;;;;;;26.58;22.90;99684.09;5000421;28;20037;-79
2021/07/24 11:30:07;;;;;;;2.05;1.10;;;;;;;26.50;23.22;99700.66;5015839;28;20037;-76
2021/07/24 11:32:46;;;;;;;3.35;1.35;;;;;;;26.19;23.14;99668.38;5000050;28;20424;-78
2021/07/24 11:35:17;;;;;;;4.20;1.30;;;;;;;26.31;23.80;99699.44;5017902;28;20501;-79
2021/07/24 11:37:53;;;;;;;4.90;1.27;;;;;;;26.08;23.94;99686.97;5034974;28;20041;-79
2021/07/24 11:40:22;;;;;;;3.13;1.17;;;;;;;26.07;23.79;99707.47;5034003;28;20319;-80
2021/07/24 11:42:58;;;;;;;2.33;1.50;;;;;;;25.97;23.55;99706.44;5001339;28;20041;-76
2021/07/24 11:45:25;;;;;;;2.05;1.30;;;;;;;25.86;23.71;99705.44;5044209;28;20513;-79